Vernon Center, Minnesota
Current Conditions -  °F | °C
As of 7:52 AM on Monday 22 Dec 2014 (Local Time) from KJYG Reporting Station
Drizzle Drizzle  
Wind Chill: 30°   Ceiling: 200
Heat Index: 39°   Visibility: 3mi
Dew Point: 37°   Wind: 16mph
Humidity: 93%   Direction: 140°SE
Pressure: 29.59"   Gusts: 22mph
Location:  43.96°N, 94.17°W
Report Text: KJYG 221352Z AUTO 14014G19KT 3SM DZ OVC002 04/03 A2959 RMK AO2
Loading
Personal Weather Stations






























Interactive Weather Map New forecast layout! Learn more

10-Day Weather Forecast

Advertisements
Track Severe Weather on mobile